Terminal Aerodrome Forecast
Issued by NWS

Home | Current Version | Previous Version | Text Only | Print | Product List | Glossary On
Versions: 1 2 3 4 5 6 7 8 9 10 11 12 13 14
000
FTUS45 KABQ 250520
TAFAEG
TAF
KAEG 250520Z 2506/2606 15013KT P6SM FEW200
     FM251100 05005KT P6SM FEW200
     FM251700 15010KT P6SM SCT050
     FM252200 21011KT P6SM VCTS BKN060CB
     FM260100 26012G20KT P6SM VCSH BKN050=

USA.gov is the U.S. government's official web portal to all federal, state and local government web resources and services.